sensor_id;sensor_type;location;lat;lon;timestamp;temperature;humidity
16479;DHT22;8350;52.316;10.530;2022-07-23T00:00:23;15.00;99.90
16479;DHT22;8350;52.316;10.530;2022-07-23T00:02:52;15.00;99.90
16479;DHT22;8350;52.316;10.530;2022-07-23T00:05:19;14.90;99.90
16479;DHT22;8350;52.316;10.530;2022-07-23T00:07:46;14.90;99.90
16479;DHT22;8350;52.316;10.530;2022-07-23T00:10:13;15.00;99.90
16479;DHT22;8350;52.316;10.530;2022-07-23T00:12:40;15.00;99.90
16479;DHT22;8350;52.316;10.530;2022-07-23T00:15:08;15.10;99.90
16479;DHT22;8350;52.316;10.530;2022-07-23T00:17:35;15.10;99.90
16479;DHT22;8350;52.316;10.530;2022-07-23T00:20:07;15.10;99.90
16479;DHT22;8350;52.316;10.530;2022-07-23T00:22:34;15.10;99.90
16479;DHT22;8350;52.316;10.530;2022-07-23T00:25:01;15.00;99.90
16479;DHT22;8350;52.316;10.530;2022-07-23T00:27:27;15.00;99.90
16479;DHT22;8350;52.316;10.530;2022-07-23T00:29:54;14.90;99.90
16479;DHT22;8350;52.316;10.530;2022-07-23T00:32:21;14.90;99.90
16479;DHT22;8350;52.316;10.530;2022-07-23T00:34:48;15.00;99.90
16479;DHT22;8350;52.316;10.530;2022-07-23T00:37:16;15.00;99.90
16479;DHT22;8350;52.316;10.530;2022-07-23T00:39:43;15.00;99.90
16479;DHT22;8350;52.316;10.530;2022-07-23T00:42:09;14.90;99.90
16479;DHT22;8350;52.316;10.530;2022-07-23T00:44:36;14.90;99.90
16479;DHT22;8350;52.316;10.530;2022-07-23T00:47:03;14.90;99.90
16479;DHT22;8350;52.316;10.530;2022-07-23T00:49:31;14.90;99.90
16479;DHT22;8350;52.316;10.530;2022-07-23T00:52:01;15.00;99.90
16479;DHT22;8350;52.316;10.530;2022-07-23T00:54:36;14.90;99.90
16479;DHT22;8350;52.316;10.530;2022-07-23T00:57:03;14.90;99.90
16479;DHT22;8350;52.316;10.530;2022-07-23T00:59:30;14.90;99.90
16479;DHT22;8350;52.316;10.530;2022-07-23T01:01:58;14.80;99.90
16479;DHT22;8350;52.316;10.530;2022-07-23T01:04:24;14.70;99.90
16479;DHT22;8350;52.316;10.530;2022-07-23T01:06:51;14.70;99.90
16479;DHT22;8350;52.316;10.530;2022-07-23T01:09:18;14.70;99.90
16479;DHT22;8350;52.316;10.530;2022-07-23T01:11:48;14.70;99.90
16479;DHT22;8350;52.316;10.530;2022-07-23T01:14:21;14.70;99.90
16479;DHT22;8350;52.316;10.530;2022-07-23T01:16:49;14.60;99.90
16479;DHT22;8350;52.316;10.530;2022-07-23T01:19:24;14.60;99.90
16479;DHT22;8350;52.316;10.530;2022-07-23T01:21:52;14.50;99.90
16479;DHT22;8350;52.316;10.530;2022-07-23T01:24:21;14.50;99.90
16479;DHT22;8350;52.316;10.530;2022-07-23T01:26:48;14.50;99.90
16479;DHT22;8350;52.316;10.530;2022-07-23T01:29:16;14.40;99.90
16479;DHT22;8350;52.316;10.530;2022-07-23T01:31:44;14.40;99.90
16479;DHT22;8350;52.316;10.530;2022-07-23T01:34:11;14.40;99.90
16479;DHT22;8350;52.316;10.530;2022-07-23T01:36:37;14.30;99.90
16479;DHT22;8350;52.316;10.530;2022-07-23T01:39:06;14.30;99.90
16479;DHT22;8350;52.316;10.530;2022-07-23T01:41:35;14.30;99.90
16479;DHT22;8350;52.316;10.530;2022-07-23T01:44:02;14.20;99.90
16479;DHT22;8350;52.316;10.530;2022-07-23T01:46:29;14.10;99.90
16479;DHT22;8350;52.316;10.530;2022-07-23T01:48:57;14.10;99.90
16479;DHT22;8350;52.316;10.530;2022-07-23T01:51:24;14.10;99.90
16479;DHT22;8350;52.316;10.530;2022-07-23T01:53:51;14.10;99.90
16479;DHT22;8350;52.316;10.530;2022-07-23T01:56:18;14.10;99.90
16479;DHT22;8350;52.316;10.530;2022-07-23T01:58:47;14.00;99.90
16479;DHT22;8350;52.316;10.530;2022-07-23T02:01:16;14.00;99.90
16479;DHT22;8350;52.316;10.530;2022-07-23T02:03:43;13.90;99.90
16479;DHT22;8350;52.316;10.530;2022-07-23T02:06:13;13.90;99.90
16479;DHT22;8350;52.316;10.530;2022-07-23T02:08:40;13.90;99.90
16479;DHT22;8350;52.316;10.530;2022-07-23T02:11:06;14.00;99.90
16479;DHT22;8350;52.316;10.530;2022-07-23T02:13:33;14.00;99.90
16479;DHT22;8350;52.316;10.530;2022-07-23T02:16:02;13.90;99.90
16479;DHT22;8350;52.316;10.530;2022-07-23T02:18:30;13.90;99.90
16479;DHT22;8350;52.316;10.530;2022-07-23T02:21:06;13.90;99.90
16479;DHT22;8350;52.316;10.530;2022-07-23T02:23:33;13.90;99.90
16479;DHT22;8350;52.316;10.530;2022-07-23T02:25:59;14.00;99.90
16479;DHT22;8350;52.316;10.530;2022-07-23T02:28:26;14.00;99.90
16479;DHT22;8350;52.316;10.530;2022-07-23T02:30:53;14.10;99.90
16479;DHT22;8350;52.316;10.530;2022-07-23T02:33:21;14.10;99.90
16479;DHT22;8350;52.316;10.530;2022-07-23T02:35:49;14.20;99.90
16479;DHT22;8350;52.316;10.530;2022-07-23T02:38:16;14.20;99.90
16479;DHT22;8350;52.316;10.530;2022-07-23T02:40:42;14.20;99.90
16479;DHT22;8350;52.316;10.530;2022-07-23T02:43:09;14.20;99.90
16479;DHT22;8350;52.316;10.530;2022-07-23T02:45:36;14.10;99.90
16479;DHT22;8350;52.316;10.530;2022-07-23T02:48:03;14.00;99.90
16479;DHT22;8350;52.316;10.530;2022-07-23T02:50:32;14.00;99.90
16479;DHT22;8350;52.316;10.530;2022-07-23T02:53:01;14.00;99.90
16479;DHT22;8350;52.316;10.530;2022-07-23T02:55:28;14.00;99.90
16479;DHT22;8350;52.316;10.530;2022-07-23T02:57:57;14.00;99.90
16479;DHT22;8350;52.316;10.530;2022-07-23T03:00:24;14.00;99.90
16479;DHT22;8350;52.316;10.530;2022-07-23T03:02:51;14.00;99.90
16479;DHT22;8350;52.316;10.530;2022-07-23T03:05:18;13.90;99.90
16479;DHT22;8350;52.316;10.530;2022-07-23T03:07:46;13.90;99.90
16479;DHT22;8350;52.316;10.530;2022-07-23T03:10:13;14.00;99.90
16479;DHT22;8350;52.316;10.530;2022-07-23T03:12:42;14.00;99.90
16479;DHT22;8350;52.316;10.530;2022-07-23T03:15:09;14.00;99.90
16479;DHT22;8350;52.316;10.530;2022-07-23T03:17:36;14.00;99.90
16479;DHT22;8350;52.316;10.530;2022-07-23T03:20:04;14.00;99.90
16479;DHT22;8350;52.316;10.530;2022-07-23T03:22:31;14.00;99.90
16479;DHT22;8350;52.316;10.530;2022-07-23T03:24:59;14.10;99.90
16479;DHT22;8350;52.316;10.530;2022-07-23T03:27:27;14.10;99.90
16479;DHT22;8350;52.316;10.530;2022-07-23T03:29:57;14.10;99.90
16479;DHT22;8350;52.316;10.530;2022-07-23T03:32:24;14.10;99.90
16479;DHT22;8350;52.316;10.530;2022-07-23T03:34:52;14.10;99.90
16479;DHT22;8350;52.316;10.530;2022-07-23T03:37:20;14.10;99.90
16479;DHT22;8350;52.316;10.530;2022-07-23T03:39:47;14.10;99.90
16479;DHT22;8350;52.316;10.530;2022-07-23T03:42:15;14.20;99.90
16479;DHT22;8350;52.316;10.530;2022-07-23T03:44:42;14.20;99.90
16479;DHT22;8350;52.316;10.530;2022-07-23T03:47:09;14.20;99.90
16479;DHT22;8350;52.316;10.530;2022-07-23T03:49:36;14.20;99.90
16479;DHT22;8350;52.316;10.530;2022-07-23T03:52:03;14.30;99.90
16479;DHT22;8350;52.316;10.530;2022-07-23T03:54:30;14.30;99.90
16479;DHT22;8350;52.316;10.530;2022-07-23T03:56:56;14.30;99.90
16479;DHT22;8350;52.316;10.530;2022-07-23T03:59:25;14.30;99.90
16479;DHT22;8350;52.316;10.530;2022-07-23T04:01:51;14.40;99.90
16479;DHT22;8350;52.316;10.530;2022-07-23T04:04:25;14.40;99.90
16479;DHT22;8350;52.316;10.530;2022-07-23T04:06:52;14.40;99.90
16479;DHT22;8350;52.316;10.530;2022-07-23T04:09:29;14.40;99.90
16479;DHT22;8350;52.316;10.530;2022-07-23T04:11:56;14.40;99.90
16479;DHT22;8350;52.316;10.530;2022-07-23T04:14:26;14.40;99.90
16479;DHT22;8350;52.316;10.530;2022-07-23T04:16:53;14.40;99.90
16479;DHT22;8350;52.316;10.530;2022-07-23T04:19:20;14.50;99.90
16479;DHT22;8350;52.316;10.530;2022-07-23T04:21:46;14.60;99.90
16479;DHT22;8350;52.316;10.530;2022-07-23T04:24:13;14.70;99.90
16479;DHT22;8350;52.316;10.530;2022-07-23T04:26:40;14.70;99.90
16479;DHT22;8350;52.316;10.530;2022-07-23T04:29:07;14.70;99.90
16479;DHT22;8350;52.316;10.530;2022-07-23T04:31:35;14.70;99.90
16479;DHT22;8350;52.316;10.530;2022-07-23T04:34:02;14.80;99.90
16479;DHT22;8350;52.316;10.530;2022-07-23T04:36:29;14.90;99.90
16479;DHT22;8350;52.316;10.530;2022-07-23T04:38:56;14.80;99.90
16479;DHT22;8350;52.316;10.530;2022-07-23T04:41:23;14.80;99.90
16479;DHT22;8350;52.316;10.530;2022-07-23T04:43:50;14.80;99.90
16479;DHT22;8350;52.316;10.530;2022-07-23T04:46:16;14.80;99.90
16479;DHT22;8350;52.316;10.530;2022-07-23T04:48:44;14.70;99.90
16479;DHT22;8350;52.316;10.530;2022-07-23T04:51:11;14.70;99.90
16479;DHT22;8350;52.316;10.530;2022-07-23T04:53:38;14.70;99.90
16479;DHT22;8350;52.316;10.530;2022-07-23T04:56:05;14.70;99.90
16479;DHT22;8350;52.316;10.530;2022-07-23T04:58:32;14.80;99.90
16479;DHT22;8350;52.316;10.530;2022-07-23T05:00:59;14.80;99.90
16479;DHT22;8350;52.316;10.530;2022-07-23T05:03:26;14.80;99.90
16479;DHT22;8350;52.316;10.530;2022-07-23T05:05:54;14.90;99.90
16479;DHT22;8350;52.316;10.530;2022-07-23T05:08:21;14.80;99.90
16479;DHT22;8350;52.316;10.530;2022-07-23T05:10:48;14.90;99.90
16479;DHT22;8350;52.316;10.530;2022-07-23T05:13:15;14.90;99.90
16479;DHT22;8350;52.316;10.530;2022-07-23T05:15:42;15.00;99.90
16479;DHT22;8350;52.316;10.530;2022-07-23T05:18:09;15.00;99.90
16479;DHT22;8350;52.316;10.530;2022-07-23T05:20:36;14.90;99.90
16479;DHT22;8350;52.316;10.530;2022-07-23T05:23:04;15.00;99.90
16479;DHT22;8350;52.316;10.530;2022-07-23T05:25:32;15.00;99.90
16479;DHT22;8350;52.316;10.530;2022-07-23T05:27:59;15.20;99.90
16479;DHT22;8350;52.316;10.530;2022-07-23T05:30:26;15.20;99.90
16479;DHT22;8350;52.316;10.530;2022-07-23T05:32:53;15.30;99.90
16479;DHT22;8350;52.316;10.530;2022-07-23T05:35:20;15.30;99.90
16479;DHT22;8350;52.316;10.530;2022-07-23T05:37:46;15.40;99.90
16479;DHT22;8350;52.316;10.530;2022-07-23T05:40:15;15.40;99.90
16479;DHT22;8350;52.316;10.530;2022-07-23T05:42:42;15.40;99.90
16479;DHT22;8350;52.316;10.530;2022-07-23T05:45:10;15.50;99.90
16479;DHT22;8350;52.316;10.530;2022-07-23T05:47:42;15.50;99.90
16479;DHT22;8350;52.316;10.530;2022-07-23T05:50:10;15.60;99.90
16479;DHT22;8350;52.316;10.530;2022-07-23T05:52:37;15.70;99.90
16479;DHT22;8350;52.316;10.530;2022-07-23T05:55:05;15.90;99.90
16479;DHT22;8350;52.316;10.530;2022-07-23T05:57:36;16.40;99.90
16479;DHT22;8350;52.316;10.530;2022-07-23T06:00:05;17.60;99.90
16479;DHT22;8350;52.316;10.530;2022-07-23T06:02:32;18.40;99.90
16479;DHT22;8350;52.316;10.530;2022-07-23T06:04:59;18.70;99.90
16479;DHT22;8350;52.316;10.530;2022-07-23T06:07:28;19.10;99.90
16479;DHT22;8350;52.316;10.530;2022-07-23T06:09:55;19.60;99.90
16479;DHT22;8350;52.316;10.530;2022-07-23T06:12:21;19.80;99.90
16479;DHT22;8350;52.316;10.530;2022-07-23T06:14:51;19.40;99.90
16479;DHT22;8350;52.316;10.530;2022-07-23T06:17:20;20.00;99.90
16479;DHT22;8350;52.316;10.530;2022-07-23T06:19:47;20.60;99.90
16479;DHT22;8350;52.316;10.530;2022-07-23T06:22:14;20.50;39.20
16479;DHT22;8350;52.316;10.530;2022-07-23T06:24:43;20.50;9.20
16479;DHT22;8350;52.316;10.530;2022-07-23T06:27:09;20.20;58.90
16479;DHT22;8350;52.316;10.530;2022-07-23T06:29:36;20.10;34.70
16479;DHT22;8350;52.316;10.530;2022-07-23T06:32:06;20.10;39.40
16479;DHT22;8350;52.316;10.530;2022-07-23T06:34:33;19.80;62.40
16479;DHT22;8350;52.316;10.530;2022-07-23T06:37:00;19.90;43.70
16479;DHT22;8350;52.316;10.530;2022-07-23T06:39:26;20.10;32.20
16479;DHT22;8350;52.316;10.530;2022-07-23T06:41:53;20.00;38.70
16479;DHT22;8350;52.316;10.530;2022-07-23T06:44:20;20.10;60.10
16479;DHT22;8350;52.316;10.530;2022-07-23T06:46:47;19.80;93.70
16479;DHT22;8350;52.316;10.530;2022-07-23T06:49:15;20.00;99.50
16479;DHT22;8350;52.316;10.530;2022-07-23T06:51:42;20.00;34.10
16479;DHT22;8350;52.316;10.530;2022-07-23T06:54:09;19.60;50.10
16479;DHT22;8350;52.316;10.530;2022-07-23T06:56:36;19.80;63.00
16479;DHT22;8350;52.316;10.530;2022-07-23T06:59:03;20.20;64.30
16479;DHT22;8350;52.316;10.530;2022-07-23T07:01:31;20.30;23.60
16479;DHT22;8350;52.316;10.530;2022-07-23T07:03:58;19.90;36.40
16479;DHT22;8350;52.316;10.530;2022-07-23T07:06:26;20.00;20.30
16479;DHT22;8350;52.316;10.530;2022-07-23T07:08:52;20.00;26.50
16479;DHT22;8350;52.316;10.530;2022-07-23T07:11:21;20.20;36.90
16479;DHT22;8350;52.316;10.530;2022-07-23T07:13:49;20.10;7.10
16479;DHT22;8350;52.316;10.530;2022-07-23T07:16:16;20.50;9.20
16479;DHT22;8350;52.316;10.530;2022-07-23T07:18:45;20.60;1.00
16479;DHT22;8350;52.316;10.530;2022-07-23T07:21:12;20.60;14.00
16479;DHT22;8350;52.316;10.530;2022-07-23T07:23:41;21.10;1.00
16479;DHT22;8350;52.316;10.530;2022-07-23T07:26:08;20.70;1.00
16479;DHT22;8350;52.316;10.530;2022-07-23T07:28:35;20.70;1.00
16479;DHT22;8350;52.316;10.530;2022-07-23T07:31:01;21.10;1.00
16479;DHT22;8350;52.316;10.530;2022-07-23T07:33:28;21.60;1.00
16479;DHT22;8350;52.316;10.530;2022-07-23T07:35:55;21.50;1.00
16479;DHT22;8350;52.316;10.530;2022-07-23T07:38:22;21.60;1.00
16479;DHT22;8350;52.316;10.530;2022-07-23T07:40:50;21.70;1.00
16479;DHT22;8350;52.316;10.530;2022-07-23T07:43:17;21.60;1.00
16479;DHT22;8350;52.316;10.530;2022-07-23T07:45:44;20.80;1.00
16479;DHT22;8350;52.316;10.530;2022-07-23T07:48:25;20.40;1.00
16479;DHT22;8350;52.316;10.530;2022-07-23T07:50:54;20.40;1.00
16479;DHT22;8350;52.316;10.530;2022-07-23T07:53:21;20.20;1.00
16479;DHT22;8350;52.316;10.530;2022-07-23T07:55:48;20.40;1.00
16479;DHT22;8350;52.316;10.530;2022-07-23T07:58:16;21.00;1.00
16479;DHT22;8350;52.316;10.530;2022-07-23T08:00:42;21.30;1.00
16479;DHT22;8350;52.316;10.530;2022-07-23T08:03:11;20.80;1.00
16479;DHT22;8350;52.316;10.530;2022-07-23T08:05:41;21.00;1.00
16479;DHT22;8350;52.316;10.530;2022-07-23T08:08:08;21.30;1.00
16479;DHT22;8350;52.316;10.530;2022-07-23T08:10:40;21.20;1.00
16479;DHT22;8350;52.316;10.530;2022-07-23T08:13:07;21.50;1.00
16479;DHT22;8350;52.316;10.530;2022-07-23T08:15:35;21.50;1.00
16479;DHT22;8350;52.316;10.530;2022-07-23T08:18:02;21.90;1.00
16479;DHT22;8350;52.316;10.530;2022-07-23T08:20:30;21.50;1.00
16479;DHT22;8350;52.316;10.530;2022-07-23T08:23:00;21.20;1.00
16479;DHT22;8350;52.316;10.530;2022-07-23T08:25:28;21.10;1.00
16479;DHT22;8350;52.316;10.530;2022-07-23T08:27:55;21.40;1.00
16479;DHT22;8350;52.316;10.530;2022-07-23T08:30:23;21.40;1.00
16479;DHT22;8350;52.316;10.530;2022-07-23T08:32:56;21.50;1.00
16479;DHT22;8350;52.316;10.530;2022-07-23T08:35:25;21.50;1.00
16479;DHT22;8350;52.316;10.530;2022-07-23T08:37:52;21.00;1.00
16479;DHT22;8350;52.316;10.530;2022-07-23T08:40:19;20.40;1.00
16479;DHT22;8350;52.316;10.530;2022-07-23T08:42:48;20.30;1.00
16479;DHT22;8350;52.316;10.530;2022-07-23T08:45:16;20.40;1.00
16479;DHT22;8350;52.316;10.530;2022-07-23T08:47:50;20.50;1.00
16479;DHT22;8350;52.316;10.530;2022-07-23T08:50:23;20.70;1.00
16479;DHT22;8350;52.316;10.530;2022-07-23T08:52:53;21.30;1.00
16479;DHT22;8350;52.316;10.530;2022-07-23T08:55:22;22.10;1.00
16479;DHT22;8350;52.316;10.530;2022-07-23T08:57:51;22.00;1.00
16479;DHT22;8350;52.316;10.530;2022-07-23T09:00:19;21.60;1.00
16479;DHT22;8350;52.316;10.530;2022-07-23T09:02:47;21.50;1.00
16479;DHT22;8350;52.316;10.530;2022-07-23T09:05:15;21.20;1.00
16479;DHT22;8350;52.316;10.530;2022-07-23T09:08:09;20.90;1.00
16479;DHT22;8350;52.316;10.530;2022-07-23T09:10:47;21.00;1.00
16479;DHT22;8350;52.316;10.530;2022-07-23T09:13:27;21.00;1.00
16479;DHT22;8350;52.316;10.530;2022-07-23T09:15:55;21.30;1.00
16479;DHT22;8350;52.316;10.530;2022-07-23T09:18:29;21.90;1.00
16479;DHT22;8350;52.316;10.530;2022-07-23T09:21:09;22.20;1.00
16479;DHT22;8350;52.316;10.530;2022-07-23T09:23:42;22.20;1.00
16479;DHT22;8350;52.316;10.530;2022-07-23T09:26:21;22.60;1.00
16479;DHT22;8350;52.316;10.530;2022-07-23T09:28:55;23.30;1.00
16479;DHT22;8350;52.316;10.530;2022-07-23T09:31:23;22.50;99.90
16479;DHT22;8350;52.316;10.530;2022-07-23T09:33:50;22.10;1.00
16479;DHT22;8350;52.316;10.530;2022-07-23T09:36:29;21.70;99.90
16479;DHT22;8350;52.316;10.530;2022-07-23T09:38:57;22.00;1.00
16479;DHT22;8350;52.316;10.530;2022-07-23T09:41:24;22.50;1.00
16479;DHT22;8350;52.316;10.530;2022-07-23T09:43:55;23.10;99.90
16479;DHT22;8350;52.316;10.530;2022-07-23T09:46:26;23.30;99.90
16479;DHT22;8350;52.316;10.530;2022-07-23T09:48:54;22.90;85.40
16479;DHT22;8350;52.316;10.530;2022-07-23T09:51:23;22.20;99.90
16479;DHT22;8350;52.316;10.530;2022-07-23T09:53:54;22.40;99.90
16479;DHT22;8350;52.316;10.530;2022-07-23T09:56:29;22.70;99.90
16479;DHT22;8350;52.316;10.530;2022-07-23T09:59:02;23.20;90.20
16479;DHT22;8350;52.316;10.530;2022-07-23T10:01:31;22.80;1.00
16479;DHT22;8350;52.316;10.530;2022-07-23T10:04:01;22.20;1.00
16479;DHT22;8350;52.316;10.530;2022-07-23T10:06:29;22.40;1.00
16479;DHT22;8350;52.316;10.530;2022-07-23T10:08:58;23.00;1.00
16479;DHT22;8350;52.316;10.530;2022-07-23T10:11:28;23.60;1.00
16479;DHT22;8350;52.316;10.530;2022-07-23T10:13:56;23.90;99.90
16479;DHT22;8350;52.316;10.530;2022-07-23T10:16:25;24.10;99.90
16479;DHT22;8350;52.316;10.530;2022-07-23T10:18:52;24.10;99.90
16479;DHT22;8350;52.316;10.530;2022-07-23T10:21:27;24.20;99.90
16479;DHT22;8350;52.316;10.530;2022-07-23T10:24:18;24.00;1.00
16479;DHT22;8350;52.316;10.530;2022-07-23T10:26:55;24.10;1.00
16479;DHT22;8350;52.316;10.530;2022-07-23T10:29:38;24.00;99.90
16479;DHT22;8350;52.316;10.530;2022-07-23T10:32:17;23.90;99.90
16479;DHT22;8350;52.316;10.530;2022-07-23T10:34:52;23.70;1.00
16479;DHT22;8350;52.316;10.530;2022-07-23T10:37:23;23.70;1.00
16479;DHT22;8350;52.316;10.530;2022-07-23T10:40:09;23.30;1.00
16479;DHT22;8350;52.316;10.530;2022-07-23T10:42:38;23.00;1.00
16479;DHT22;8350;52.316;10.530;2022-07-23T10:45:26;23.10;1.00
16479;DHT22;8350;52.316;10.530;2022-07-23T10:47:54;23.50;1.00
16479;DHT22;8350;52.316;10.530;2022-07-23T10:50:23;23.70;1.00
16479;DHT22;8350;52.316;10.530;2022-07-23T10:53:10;23.70;1.00
16479;DHT22;8350;52.316;10.530;2022-07-23T10:55:49;23.90;99.90
16479;DHT22;8350;52.316;10.530;2022-07-23T10:58:46;23.70;13.40
16479;DHT22;8350;52.316;10.530;2022-07-23T11:01:35;24.10;99.90
16479;DHT22;8350;52.316;10.530;2022-07-23T11:04:03;24.10;99.90
16479;DHT22;8350;52.316;10.530;2022-07-23T11:07:07;24.10;1.00
16479;DHT22;8350;52.316;10.530;2022-07-23T11:09:42;23.60;99.90
16479;DHT22;8350;52.316;10.530;2022-07-23T11:12:45;23.80;1.00
16479;DHT22;8350;52.316;10.530;2022-07-23T11:15:14;24.10;1.00
16479;DHT22;8350;52.316;10.530;2022-07-23T11:17:59;24.40;99.90
16479;DHT22;8350;52.316;10.530;2022-07-23T11:20:26;24.80;1.00
16479;DHT22;8350;52.316;10.530;2022-07-23T11:22:58;25.00;99.90
16479;DHT22;8350;52.316;10.530;2022-07-23T11:25:44;24.60;99.90
16479;DHT22;8350;52.316;10.530;2022-07-23T11:28:17;24.10;75.00
16479;DHT22;8350;52.316;10.530;2022-07-23T11:30:48;24.00;1.00
16479;DHT22;8350;52.316;10.530;2022-07-23T11:33:19;23.40;99.90
16479;DHT22;8350;52.316;10.530;2022-07-23T11:36:03;23.10;1.00
16479;DHT22;8350;52.316;10.530;2022-07-23T11:38:31;23.10;99.90
16479;DHT22;8350;52.316;10.530;2022-07-23T11:41:01;23.40;99.90
16479;DHT22;8350;52.316;10.530;2022-07-23T11:43:28;24.10;28.50
16479;DHT22;8350;52.316;10.530;2022-07-23T11:45:59;24.20;99.90
16479;DHT22;8350;52.316;10.530;2022-07-23T11:48:27;24.50;1.00
16479;DHT22;8350;52.316;10.530;2022-07-23T11:51:05;25.00;26.30
16479;DHT22;8350;52.316;10.530;2022-07-23T11:53:35;25.40;1.00
16479;DHT22;8350;52.316;10.530;2022-07-23T11:56:06;25.50;99.90
16479;DHT22;8350;52.316;10.530;2022-07-23T11:58:33;25.60;99.90
16479;DHT22;8350;52.316;10.530;2022-07-23T12:01:01;25.50;1.00
16479;DHT22;8350;52.316;10.530;2022-07-23T12:03:28;25.30;1.00
16479;DHT22;8350;52.316;10.530;2022-07-23T12:05:56;25.30;1.00
16479;DHT22;8350;52.316;10.530;2022-07-23T12:08:26;25.00;1.00
16479;DHT22;8350;52.316;10.530;2022-07-23T12:10:52;24.60;99.90
16479;DHT22;8350;52.316;10.530;2022-07-23T12:13:23;24.60;99.90
16479;DHT22;8350;52.316;10.530;2022-07-23T12:15:53;24.80;99.90
16479;DHT22;8350;52.316;10.530;2022-07-23T12:18:23;25.20;1.00
16479;DHT22;8350;52.316;10.530;2022-07-23T12:20:52;25.10;1.00
16479;DHT22;8350;52.316;10.530;2022-07-23T12:23:21;24.80;1.00
16479;DHT22;8350;52.316;10.530;2022-07-23T12:25:49;25.20;13.70
16479;DHT22;8350;52.316;10.530;2022-07-23T12:28:18;25.60;1.00
16479;DHT22;8350;52.316;10.530;2022-07-23T12:30:46;25.40;1.00
16479;DHT22;8350;52.316;10.530;2022-07-23T12:33:14;25.00;1.00
16479;DHT22;8350;52.316;10.530;2022-07-23T12:35:46;25.00;1.00
16479;DHT22;8350;52.316;10.530;2022-07-23T12:38:15;25.40;1.00
16479;DHT22;8350;52.316;10.530;2022-07-23T12:40:43;25.40;1.00
16479;DHT22;8350;52.316;10.530;2022-07-23T12:43:19;25.70;1.00
16479;DHT22;8350;52.316;10.530;2022-07-23T12:45:48;25.80;1.00
16479;DHT22;8350;52.316;10.530;2022-07-23T12:48:18;25.80;99.90
16479;DHT22;8350;52.316;10.530;2022-07-23T12:50:53;25.90;99.90
16479;DHT22;8350;52.316;10.530;2022-07-23T12:53:22;25.30;99.90
16479;DHT22;8350;52.316;10.530;2022-07-23T12:55:50;24.80;99.90
16479;DHT22;8350;52.316;10.530;2022-07-23T12:58:19;25.20;1.00
16479;DHT22;8350;52.316;10.530;2022-07-23T13:00:54;25.60;99.90
16479;DHT22;8350;52.316;10.530;2022-07-23T13:03:23;25.60;90.40
16479;DHT22;8350;52.316;10.530;2022-07-23T13:05:52;25.30;99.90
16479;DHT22;8350;52.316;10.530;2022-07-23T13:08:19;25.30;99.90
16479;DHT22;8350;52.316;10.530;2022-07-23T13:10:46;25.50;99.90
16479;DHT22;8350;52.316;10.530;2022-07-23T13:13:14;25.50;1.00
16479;DHT22;8350;52.316;10.530;2022-07-23T13:15:41;25.40;99.90
16479;DHT22;8350;52.316;10.530;2022-07-23T13:18:08;25.30;99.90
16479;DHT22;8350;52.316;10.530;2022-07-23T13:20:41;25.20;99.90
16479;DHT22;8350;52.316;10.530;2022-07-23T13:23:09;25.30;49.10
16479;DHT22;8350;52.316;10.530;2022-07-23T13:25:36;25.50;40.30
16479;DHT22;8350;52.316;10.530;2022-07-23T13:28:09;25.60;8.30
16479;DHT22;8350;52.316;10.530;2022-07-23T13:30:41;25.60;1.00
16479;DHT22;8350;52.316;10.530;2022-07-23T13:33:08;25.60;1.00
16479;DHT22;8350;52.316;10.530;2022-07-23T13:35:36;25.60;1.00
16479;DHT22;8350;52.316;10.530;2022-07-23T13:38:04;25.80;1.00
16479;DHT22;8350;52.316;10.530;2022-07-23T13:40:34;25.70;1.00
16479;DHT22;8350;52.316;10.530;2022-07-23T13:43:01;25.40;1.00
16479;DHT22;8350;52.316;10.530;2022-07-23T13:45:28;25.40;1.00
16479;DHT22;8350;52.316;10.530;2022-07-23T13:47:55;25.40;1.00
16479;DHT22;8350;52.316;10.530;2022-07-23T13:50:22;25.70;1.00
16479;DHT22;8350;52.316;10.530;2022-07-23T13:52:49;25.70;1.00
16479;DHT22;8350;52.316;10.530;2022-07-23T13:55:16;25.80;1.00
16479;DHT22;8350;52.316;10.530;2022-07-23T13:57:45;25.60;99.90
16479;DHT22;8350;52.316;10.530;2022-07-23T14:00:12;25.50;99.90
16479;DHT22;8350;52.316;10.530;2022-07-23T14:02:40;25.40;99.90
16479;DHT22;8350;52.316;10.530;2022-07-23T14:05:09;25.40;99.90
16479;DHT22;8350;52.316;10.530;2022-07-23T14:07:38;25.30;99.90
16479;DHT22;8350;52.316;10.530;2022-07-23T14:10:06;25.20;99.90
16479;DHT22;8350;52.316;10.530;2022-07-23T14:12:33;24.90;99.90
16479;DHT22;8350;52.316;10.530;2022-07-23T14:15:03;24.80;1.00
16479;DHT22;8350;52.316;10.530;2022-07-23T14:17:30;24.70;99.90
16479;DHT22;8350;52.316;10.530;2022-07-23T14:19:58;24.60;99.90
16479;DHT22;8350;52.316;10.530;2022-07-23T14:22:25;24.70;1.00
16479;DHT22;8350;52.316;10.530;2022-07-23T14:24:52;24.80;1.00
16479;DHT22;8350;52.316;10.530;2022-07-23T14:27:19;24.90;1.00
16479;DHT22;8350;52.316;10.530;2022-07-23T14:29:47;25.00;99.90
16479;DHT22;8350;52.316;10.530;2022-07-23T14:32:15;24.90;99.90
16479;DHT22;8350;52.316;10.530;2022-07-23T14:34:42;25.00;1.00
16479;DHT22;8350;52.316;10.530;2022-07-23T14:37:09;25.20;99.90
16479;DHT22;8350;52.316;10.530;2022-07-23T14:39:36;25.20;99.90
16479;DHT22;8350;52.316;10.530;2022-07-23T14:42:04;25.30;99.90
16479;DHT22;8350;52.316;10.530;2022-07-23T14:44:31;25.00;73.80
16479;DHT22;8350;52.316;10.530;2022-07-23T14:46:58;24.70;99.90
16479;DHT22;8350;52.316;10.530;2022-07-23T14:49:28;24.70;99.90
16479;DHT22;8350;52.316;10.530;2022-07-23T14:51:55;24.50;99.90
16479;DHT22;8350;52.316;10.530;2022-07-23T14:54:22;24.50;99.90
16479;DHT22;8350;52.316;10.530;2022-07-23T14:56:54;24.60;99.90
16479;DHT22;8350;52.316;10.530;2022-07-23T14:59:21;24.80;99.90
16479;DHT22;8350;52.316;10.530;2022-07-23T15:01:48;24.50;1.00
16479;DHT22;8350;52.316;10.530;2022-07-23T15:04:15;24.60;99.90
16479;DHT22;8350;52.316;10.530;2022-07-23T15:06:44;24.50;1.00
16479;DHT22;8350;52.316;10.530;2022-07-23T15:09:11;24.50;1.00
16479;DHT22;8350;52.316;10.530;2022-07-23T15:11:39;24.60;35.00
16479;DHT22;8350;52.316;10.530;2022-07-23T15:14:07;24.60;35.70
16479;DHT22;8350;52.316;10.530;2022-07-23T15:16:34;24.60;1.00
16479;DHT22;8350;52.316;10.530;2022-07-23T15:19:02;24.70;1.00
16479;DHT22;8350;52.316;10.530;2022-07-23T15:21:29;24.70;1.00
16479;DHT22;8350;52.316;10.530;2022-07-23T15:23:57;24.70;1.00
16479;DHT22;8350;52.316;10.530;2022-07-23T15:26:25;24.70;1.00
16479;DHT22;8350;52.316;10.530;2022-07-23T15:28:52;24.70;6.20
16479;DHT22;8350;52.316;10.530;2022-07-23T15:31:19;24.80;1.00
16479;DHT22;8350;52.316;10.530;2022-07-23T15:33:45;24.70;1.00
16479;DHT22;8350;52.316;10.530;2022-07-23T15:36:12;24.80;1.00
16479;DHT22;8350;52.316;10.530;2022-07-23T15:38:40;24.80;1.60
16479;DHT22;8350;52.316;10.530;2022-07-23T15:41:08;24.70;1.00
16479;DHT22;8350;52.316;10.530;2022-07-23T15:43:36;24.60;1.00
16479;DHT22;8350;52.316;10.530;2022-07-23T15:46:03;24.50;99.90